createdAt,value
2018-09-13T00:00:32.163Z,24.10
2018-09-13T00:02:35.934Z,24.10
2018-09-13T00:04:39.503Z,24.30
2018-09-13T00:06:43.134Z,24.10
2018-09-13T00:08:47.066Z,24.20
2018-09-13T00:10:50.611Z,24.30
2018-09-13T00:12:54.229Z,24.40
2018-09-13T00:14:57.834Z,24.50
2018-09-13T00:17:01.413Z,24.20
2018-09-13T00:19:05.084Z,23.80
2018-09-13T00:21:08.723Z,23.80
2018-09-13T00:23:12.260Z,24.10
2018-09-13T00:25:15.910Z,24.10
2018-09-13T00:27:19.425Z,24.20
2018-09-13T00:29:23.120Z,24.20
2018-09-13T00:31:26.715Z,24.20
2018-09-13T00:33:30.435Z,24.20
2018-09-13T00:35:34.104Z,24.00
2018-09-13T00:37:37.731Z,23.70
2018-09-13T00:39:41.288Z,23.80
2018-09-13T00:41:44.849Z,23.80
2018-09-13T00:43:48.516Z,23.70
2018-09-13T00:45:52.084Z,23.30
2018-09-13T00:47:55.702Z,22.90
2018-09-13T00:49:59.293Z,23.10
2018-09-13T00:52:02.865Z,23.20
2018-09-13T00:54:06.641Z,22.90
2018-09-13T00:56:10.164Z,22.80
2018-09-13T00:58:13.741Z,22.70
2018-09-13T01:00:17.359Z,22.90
2018-09-13T01:02:20.889Z,23.00
2018-09-13T01:04:24.603Z,22.80
2018-09-13T01:06:28.189Z,22.30
2018-09-13T01:08:31.878Z,21.90
2018-09-13T01:10:35.645Z,22.20
2018-09-13T01:12:39.224Z,22.50
2018-09-13T01:14:42.853Z,22.30
2018-09-13T01:16:46.467Z,22.10
2018-09-13T01:18:50.053Z,22.40
2018-09-13T01:20:53.807Z,22.70
2018-09-13T01:22:57.472Z,22.90
2018-09-13T01:25:01.156Z,22.70
2018-09-13T01:27:04.757Z,22.60
2018-09-13T01:29:08.313Z,22.60
2018-09-13T01:31:11.883Z,22.80
2018-09-13T01:33:15.684Z,22.70
2018-09-13T01:35:19.323Z,22.70
2018-09-13T01:37:22.895Z,22.50
2018-09-13T01:39:26.598Z,22.00
2018-09-13T01:41:30.158Z,22.20
2018-09-13T01:43:33.718Z,22.10
2018-09-13T01:45:37.294Z,22.10
2018-09-13T01:47:40.819Z,22.20
2018-09-13T01:49:44.435Z,22.30
2018-09-13T01:51:47.988Z,22.50
2018-09-13T01:53:51.626Z,22.70
2018-09-13T01:55:55.261Z,22.80
2018-09-13T01:57:59.023Z,22.80
2018-09-13T02:00:02.591Z,22.90
2018-09-13T02:02:06.278Z,22.70
2018-09-13T02:04:09.835Z,21.90
2018-09-13T02:06:13.446Z,20.90
2018-09-13T02:08:17.124Z,21.00
2018-09-13T02:10:20.645Z,21.20
2018-09-13T02:12:24.352Z,21.20
2018-09-13T02:14:27.964Z,21.60
2018-09-13T02:16:31.709Z,21.70
2018-09-13T02:18:35.408Z,21.80
2018-09-13T02:20:38.949Z,22.10
2018-09-13T02:22:42.784Z,22.30
2018-09-13T02:24:46.310Z,22.40
2018-09-13T02:26:49.879Z,22.60
2018-09-13T02:28:53.578Z,22.80
2018-09-13T02:30:57.111Z,22.90
2018-09-13T02:33:00.713Z,22.50
2018-09-13T02:35:04.604Z,22.70
2018-09-13T02:37:08.181Z,22.70
2018-09-13T02:39:11.798Z,23.00
2018-09-13T02:41:15.336Z,23.10
2018-09-13T02:43:18.848Z,22.90
2018-09-13T02:45:22.384Z,23.10
2018-09-13T02:47:25.933Z,22.80
2018-09-13T02:49:29.508Z,22.70
2018-09-13T02:51:33.117Z,22.80
2018-09-13T02:53:36.640Z,22.80
2018-09-13T02:55:40.401Z,23.00
2018-09-13T02:57:43.919Z,23.10
2018-09-13T02:59:47.432Z,23.20
2018-09-13T03:01:50.981Z,23.20
2018-09-13T03:03:54.566Z,23.30
2018-09-13T03:05:58.124Z,22.90
2018-09-13T03:08:01.978Z,22.80
2018-09-13T03:10:05.646Z,22.90
2018-09-13T03:12:09.733Z,22.80
2018-09-13T03:14:13.712Z,22.80
2018-09-13T03:16:17.309Z,22.60
2018-09-13T03:18:20.981Z,22.60
2018-09-13T03:20:24.707Z,22.80
2018-09-13T03:22:28.268Z,23.00
2018-09-13T03:24:31.803Z,23.00
2018-09-13T03:26:35.347Z,22.80
2018-09-13T03:28:39.119Z,22.70
2018-09-13T03:30:42.848Z,22.90
2018-09-13T03:32:46.391Z,22.90
2018-09-13T03:34:50.010Z,22.70
2018-09-13T03:36:53.606Z,22.60
2018-09-13T03:38:57.159Z,22.00
2018-09-13T03:41:00.907Z,22.00
2018-09-13T03:43:04.464Z,22.20
2018-09-13T03:45:08.161Z,22.30
2018-09-13T03:47:11.794Z,22.60
2018-09-13T03:49:15.510Z,22.60
2018-09-13T03:51:19.108Z,22.30
2018-09-13T03:53:22.818Z,21.90
2018-09-13T03:55:26.583Z,21.80
2018-09-13T03:57:30.216Z,22.10
2018-09-13T03:59:33.919Z,21.90
2018-09-13T04:01:37.592Z,22.10
2018-09-13T04:03:41.202Z,22.10
2018-09-13T04:05:44.886Z,22.20
2018-09-13T04:07:48.416Z,22.30
2018-09-13T04:09:52.002Z,22.30
2018-09-13T04:11:55.652Z,22.40
2018-09-13T04:13:59.282Z,22.20
2018-09-13T04:16:02.999Z,21.70
2018-09-13T04:18:06.650Z,21.80
2018-09-13T04:20:10.246Z,21.90
2018-09-13T04:22:14.614Z,21.90
2018-09-13T04:24:18.161Z,21.80
2018-09-13T04:26:21.735Z,22.00
2018-09-13T04:28:25.285Z,21.90
2018-09-13T04:30:29.038Z,22.10
2018-09-13T04:32:32.619Z,22.20
2018-09-13T04:34:36.256Z,22.30
2018-09-13T04:36:39.759Z,22.40
2018-09-13T04:38:43.280Z,22.20
2018-09-13T04:40:46.797Z,23.50
2018-09-13T04:42:50.367Z,22.10
2018-09-13T04:44:54.048Z,22.10
2018-09-13T04:46:57.544Z,22.00
2018-09-13T04:49:01.230Z,21.70
2018-09-13T04:51:04.763Z,21.70
2018-09-13T04:53:08.391Z,21.90
2018-09-13T04:55:11.944Z,22.00
2018-09-13T04:57:15.729Z,22.00
2018-09-13T04:59:19.252Z,22.10
2018-09-13T05:01:22.794Z,22.00
2018-09-13T05:03:26.363Z,22.00
2018-09-13T05:05:30.025Z,22.10
2018-09-13T05:07:33.575Z,22.10
2018-09-13T05:09:37.139Z,21.80
2018-09-13T05:11:40.833Z,21.80
2018-09-13T05:13:45.354Z,21.90
2018-09-13T05:15:49.000Z,20.10
2018-09-13T05:17:52.521Z,21.90
2018-09-13T05:19:56.116Z,21.80
2018-09-13T05:21:59.631Z,21.70
2018-09-13T05:24:03.382Z,21.00
2018-09-13T05:26:06.882Z,21.20
2018-09-13T05:28:10.432Z,21.50
2018-09-13T05:30:14.216Z,21.70
2018-09-13T05:32:17.761Z,21.70
2018-09-13T05:34:21.332Z,21.70
2018-09-13T05:36:24.920Z,21.80
2018-09-13T05:38:28.413Z,21.90
2018-09-13T05:40:32.141Z,22.00
2018-09-13T05:42:35.640Z,22.10
2018-09-13T05:44:39.233Z,22.10
2018-09-13T05:46:42.753Z,22.20
2018-09-13T05:48:46.332Z,22.10
2018-09-13T05:50:49.864Z,22.00
2018-09-13T05:52:53.387Z,21.50
2018-09-13T05:54:56.983Z,21.40
2018-09-13T05:57:00.591Z,21.10
2018-09-13T05:59:04.190Z,21.00
2018-09-13T06:01:07.839Z,21.30
2018-09-13T06:03:11.403Z,21.60
2018-09-13T06:05:15.163Z,21.70
2018-09-13T06:07:18.769Z,21.70
2018-09-13T06:09:22.260Z,21.90
2018-09-13T06:11:25.851Z,22.10
2018-09-13T06:13:29.431Z,22.20
2018-09-13T06:15:32.898Z,22.40
2018-09-13T06:17:36.490Z,22.40
2018-09-13T06:19:40.013Z,22.30
2018-09-13T06:21:43.590Z,22.20
2018-09-13T06:23:47.152Z,22.30
2018-09-13T06:25:50.659Z,22.40
2018-09-13T06:27:54.264Z,22.40
2018-09-13T06:29:57.941Z,22.40
2018-09-13T06:32:01.461Z,22.60
2018-09-13T06:34:05.039Z,22.70
2018-09-13T06:36:08.672Z,22.80
2018-09-13T06:38:12.341Z,22.80
2018-09-13T06:40:15.995Z,22.70
2018-09-13T06:42:19.562Z,22.90
2018-09-13T06:44:23.233Z,22.90
2018-09-13T06:46:26.770Z,23.00
2018-09-13T06:48:30.327Z,23.00
2018-09-13T06:50:33.857Z,22.90
2018-09-13T06:52:37.544Z,22.70
2018-09-13T06:54:41.145Z,22.80
2018-09-13T06:56:44.771Z,23.00
2018-09-13T06:58:48.308Z,23.10
2018-09-13T07:00:51.849Z,23.10
2018-09-13T07:02:55.366Z,23.20
2018-09-13T07:04:59.021Z,23.40
2018-09-13T07:07:03.304Z,23.50
2018-09-13T07:09:10.088Z,23.60
2018-09-13T07:11:13.666Z,23.80
2018-09-13T07:13:17.224Z,24.00
2018-09-13T07:15:20.744Z,24.20
2018-09-13T07:17:24.268Z,24.30
2018-09-13T07:19:27.962Z,24.20
2018-09-13T07:21:31.495Z,24.10
2018-09-13T07:23:35.065Z,24.10
2018-09-13T07:25:38.529Z,24.20
2018-09-13T07:27:42.349Z,24.40
2018-09-13T07:29:45.900Z,24.30
2018-09-13T07:31:49.753Z,24.40
2018-09-13T07:33:53.346Z,24.50
2018-09-13T07:35:56.900Z,24.60
2018-09-13T07:38:00.411Z,24.60
2018-09-13T07:40:04.121Z,24.70
2018-09-13T07:42:07.696Z,24.60
2018-09-13T07:44:11.342Z,24.40
2018-09-13T07:46:14.843Z,24.40
2018-09-13T07:48:18.418Z,24.50
2018-09-13T07:50:21.906Z,24.60
2018-09-13T07:52:25.459Z,24.70
2018-09-13T07:54:31.921Z,24.70
2018-09-13T07:56:35.692Z,24.80
2018-09-13T07:58:39.287Z,24.80
2018-09-13T08:00:42.811Z,24.80
2018-09-13T08:02:46.351Z,25.00
2018-09-13T08:04:49.952Z,25.00
2018-09-13T08:06:53.713Z,24.90
2018-09-13T08:08:57.233Z,24.70
2018-09-13T08:11:00.771Z,25.00
2018-09-13T08:13:04.337Z,25.30
2018-09-13T08:15:07.931Z,25.50
2018-09-13T08:17:11.462Z,25.70
2018-09-13T08:19:15.396Z,26.00
2018-09-13T08:21:18.983Z,25.90
2018-09-13T08:23:22.536Z,25.60
2018-09-13T08:25:26.260Z,25.30
2018-09-13T08:27:29.813Z,25.40
2018-09-13T08:29:33.533Z,25.60
2018-09-13T08:31:37.089Z,25.80
2018-09-13T08:33:40.804Z,26.00
2018-09-13T08:35:44.345Z,26.10
2018-09-13T08:37:47.847Z,25.60
2018-09-13T08:39:51.443Z,25.90
2018-09-13T08:41:54.929Z,26.10
2018-09-13T08:43:58.540Z,26.00
2018-09-13T08:46:02.184Z,26.10
2018-09-13T08:48:05.819Z,26.00
2018-09-13T08:50:09.368Z,25.90
2018-09-13T08:52:13.171Z,26.10
2018-09-13T08:54:16.543Z,26.10
2018-09-13T08:56:20.066Z,26.00
2018-09-13T08:58:23.656Z,26.20
2018-09-13T09:00:27.267Z,26.30
2018-09-13T09:02:30.913Z,26.00
2018-09-13T09:04:34.401Z,25.90
2018-09-13T09:06:38.028Z,26.20
2018-09-13T09:08:41.581Z,26.30
2018-09-13T09:10:45.135Z,26.30
2018-09-13T09:12:48.839Z,26.10
2018-09-13T09:14:52.335Z,26.40
2018-09-13T09:16:55.833Z,26.80
2018-09-13T09:18:59.513Z,26.80
2018-09-13T09:21:03.058Z,26.90
2018-09-13T09:23:06.593Z,27.20
2018-09-13T09:25:10.431Z,27.30
2018-09-13T09:27:13.960Z,27.50
2018-09-13T09:29:17.730Z,27.50
2018-09-13T09:31:21.255Z,27.50
2018-09-13T09:33:24.757Z,27.50
2018-09-13T09:35:28.293Z,27.70
2018-09-13T09:37:31.798Z,27.90
2018-09-13T09:39:35.423Z,27.70
2018-09-13T09:41:38.979Z,27.80
2018-09-13T09:43:42.731Z,27.90
2018-09-13T09:45:46.297Z,27.90
2018-09-13T09:47:49.862Z,28.00
2018-09-13T09:49:56.425Z,28.10
2018-09-13T09:52:00.075Z,28.20
2018-09-13T09:54:03.638Z,28.20
2018-09-13T09:56:07.482Z,28.00
2018-09-13T09:58:10.966Z,27.80
2018-09-13T10:00:14.550Z,27.90
2018-09-13T10:02:19.939Z,28.00
2018-09-13T10:04:23.644Z,28.10
2018-09-13T10:06:27.428Z,28.00
2018-09-13T10:08:30.981Z,28.00
2018-09-13T10:10:34.639Z,27.90
2018-09-13T10:12:38.356Z,27.90
2018-09-13T10:14:42.056Z,28.20
2018-09-13T10:16:50.846Z,28.20
2018-09-13T10:18:59.855Z,27.40
2018-09-13T10:22:09.268Z,27.60
2018-09-13T10:24:18.184Z,27.90
2018-09-13T10:26:26.858Z,27.90
2018-09-13T10:28:35.805Z,28.20
2018-09-13T10:30:44.569Z,27.90
2018-09-13T10:32:53.293Z,27.90
2018-09-13T10:35:02.127Z,28.20
2018-09-13T10:37:11.056Z,28.50
2018-09-13T10:39:19.996Z,28.80
2018-09-13T10:41:28.850Z,28.80
2018-09-13T10:43:37.693Z,28.20
2018-09-13T10:45:46.711Z,27.30
2018-09-13T10:47:56.929Z,27.50
2018-09-13T10:50:04.479Z,27.10
2018-09-13T10:52:15.398Z,26.80
2018-09-13T10:54:31.967Z,26.40
2018-09-13T10:56:35.702Z,26.30
2018-09-13T10:58:39.313Z,26.10
2018-09-13T11:00:43.052Z,26.30
2018-09-13T11:02:46.597Z,26.60
2018-09-13T11:04:50.263Z,25.90
2018-09-13T11:06:53.777Z,26.30
2018-09-13T11:08:57.318Z,26.50
2018-09-13T11:11:00.971Z,27.40
2018-09-13T11:13:08.817Z,27.90
2018-09-13T11:15:17.811Z,27.40
2018-09-13T11:17:23.165Z,27.30
2018-09-13T11:19:26.739Z,27.70
2018-09-13T11:21:30.226Z,27.30
2018-09-13T11:23:33.837Z,26.80
2018-09-13T11:25:37.475Z,26.90
2018-09-13T11:27:41.035Z,26.10
2018-09-13T11:29:45.193Z,26.30
2018-09-13T11:31:48.741Z,26.50
2018-09-13T11:33:52.338Z,27.00
2018-09-13T11:35:55.964Z,27.10
2018-09-13T11:37:59.515Z,27.20
2018-09-13T11:40:03.089Z,27.40
2018-09-13T11:42:06.669Z,26.90
2018-09-13T11:44:10.384Z,27.30
2018-09-13T11:46:13.941Z,27.50
2018-09-13T11:48:17.646Z,27.60
2018-09-13T11:50:21.210Z,27.30
2018-09-13T11:52:25.008Z,27.50
2018-09-13T11:54:28.507Z,27.50
2018-09-13T11:56:32.130Z,27.80
2018-09-13T11:58:35.833Z,28.30
2018-09-13T12:00:39.679Z,27.90
2018-09-13T12:02:43.230Z,27.70
2018-09-13T12:04:46.859Z,27.80
2018-09-13T12:06:50.476Z,28.10
2018-09-13T12:08:54.043Z,27.90
2018-09-13T12:10:57.617Z,27.70
2018-09-13T12:13:01.174Z,27.20
2018-09-13T12:15:04.939Z,27.50
2018-09-13T12:17:08.594Z,27.30
2018-09-13T12:19:12.171Z,27.70
2018-09-13T12:21:15.653Z,27.70
2018-09-13T12:23:19.183Z,27.60
2018-09-13T12:25:23.008Z,27.30
2018-09-13T12:27:26.619Z,26.20
2018-09-13T12:29:30.432Z,26.00
2018-09-13T12:31:34.050Z,26.50
2018-09-13T12:33:37.599Z,26.20
2018-09-13T12:35:41.141Z,26.20
2018-09-13T12:37:44.646Z,25.80
2018-09-13T12:39:48.165Z,26.50
2018-09-13T12:41:51.804Z,26.50
2018-09-13T12:43:55.533Z,27.00
2018-09-13T12:45:59.118Z,26.60
2018-09-13T12:48:02.632Z,26.10
2018-09-13T12:50:06.633Z,25.60
2018-09-13T12:52:10.208Z,25.60
2018-09-13T12:54:13.754Z,25.90
2018-09-13T12:56:17.504Z,26.40
2018-09-13T12:58:21.110Z,26.30
2018-09-13T13:00:24.659Z,26.00
2018-09-13T13:02:28.191Z,26.30
2018-09-13T13:04:31.737Z,26.10
2018-09-13T13:06:35.346Z,25.90
2018-09-13T13:08:39.043Z,26.40
2018-09-13T13:10:42.761Z,26.70
2018-09-13T13:12:46.296Z,27.20
2018-09-13T13:14:49.870Z,27.50
2018-09-13T13:16:53.439Z,27.50
2018-09-13T13:18:57.003Z,27.90
2018-09-13T13:21:00.626Z,27.30
2018-09-13T13:23:04.128Z,27.50
2018-09-13T13:25:07.805Z,27.10
2018-09-13T13:27:11.347Z,27.20
2018-09-13T13:29:14.881Z,26.50
2018-09-13T13:31:18.523Z,26.30
2018-09-13T13:33:22.276Z,26.60
2018-09-13T13:35:25.864Z,26.70
2018-09-13T13:37:29.384Z,27.10
2018-09-13T13:39:32.960Z,27.30
2018-09-13T13:41:36.600Z,27.50
2018-09-13T13:43:40.213Z,27.10
2018-09-13T13:45:43.751Z,27.20
2018-09-13T13:47:47.624Z,27.30
2018-09-13T13:49:51.223Z,27.70
2018-09-13T13:51:54.847Z,27.30
2018-09-13T13:53:58.375Z,27.70
2018-09-13T13:56:01.909Z,27.00
2018-09-13T13:58:05.435Z,26.60
2018-09-13T14:00:09.225Z,26.10
2018-09-13T14:02:12.781Z,25.90
2018-09-13T14:04:16.312Z,25.90
2018-09-13T14:06:19.843Z,26.20
2018-09-13T14:08:23.432Z,26.30
2018-09-13T14:10:27.056Z,26.20
2018-09-13T14:12:30.560Z,26.50
2018-09-13T14:14:34.093Z,26.30
2018-09-13T14:16:38.229Z,26.00
2018-09-13T14:18:41.821Z,26.30
2018-09-13T14:20:45.538Z,26.80
2018-09-13T14:22:48.981Z,27.20
2018-09-13T14:24:52.564Z,27.00
2018-09-13T14:26:56.121Z,26.40
2018-09-13T14:28:59.654Z,26.40
2018-09-13T14:31:03.496Z,26.50
2018-09-13T14:33:07.017Z,26.30
2018-09-13T14:35:10.575Z,26.40
2018-09-13T14:37:14.099Z,25.80
2018-09-13T14:39:17.696Z,25.50
2018-09-13T14:41:21.400Z,25.60
2018-09-13T14:43:25.013Z,25.40
2018-09-13T14:45:28.547Z,24.60
2018-09-13T14:47:32.216Z,25.00
2018-09-13T14:49:35.765Z,25.10
2018-09-13T14:51:39.303Z,25.30
2018-09-13T14:53:43.076Z,24.80
2018-09-13T14:55:46.679Z,25.20
2018-09-13T14:57:50.304Z,25.80
2018-09-13T14:59:53.831Z,26.30
2018-09-13T15:01:57.610Z,26.50
2018-09-13T15:04:01.199Z,25.90
2018-09-13T15:06:04.882Z,25.90
2018-09-13T15:08:08.490Z,26.20
2018-09-13T15:10:12.217Z,26.50
2018-09-13T15:12:15.984Z,26.50
2018-09-13T15:14:19.557Z,26.70
2018-09-13T15:16:23.123Z,25.90
2018-09-13T15:18:26.748Z,25.90
2018-09-13T15:20:30.574Z,25.50
2018-09-13T15:22:34.149Z,26.00
2018-09-13T15:24:37.900Z,26.30
2018-09-13T15:26:41.348Z,26.10
2018-09-13T15:28:44.935Z,25.80
2018-09-13T15:30:48.641Z,25.60
2018-09-13T15:32:52.143Z,25.90
2018-09-13T15:34:55.959Z,26.50
2018-09-13T15:36:59.938Z,26.60
2018-09-13T15:39:03.765Z,26.50
2018-09-13T15:41:07.377Z,25.70
2018-09-13T15:43:11.002Z,24.90
2018-09-13T15:45:14.549Z,25.50
2018-09-13T15:47:18.363Z,25.20
2018-09-13T15:49:21.990Z,25.40
2018-09-13T15:51:25.643Z,25.60
2018-09-13T15:53:29.280Z,25.60
2018-09-13T15:55:32.856Z,25.40
2018-09-13T15:57:36.428Z,25.50
2018-09-13T15:59:39.962Z,25.90
2018-09-13T16:01:43.615Z,26.30
2018-09-13T16:03:47.308Z,26.60
2018-09-13T16:05:51.070Z,26.60
2018-09-13T16:07:54.807Z,26.80
2018-09-13T16:09:58.351Z,26.80
2018-09-13T16:12:02.043Z,25.90
2018-09-13T16:14:05.594Z,25.70
2018-09-13T16:16:09.457Z,25.90
2018-09-13T16:18:13.301Z,26.40
2018-09-13T16:20:17.071Z,26.70
2018-09-13T16:22:20.587Z,26.90
2018-09-13T16:24:24.229Z,26.80
2018-09-13T16:26:28.189Z,26.70
2018-09-13T16:28:31.652Z,25.70
2018-09-13T16:30:38.051Z,25.60
2018-09-13T16:32:41.807Z,26.20
2018-09-13T16:34:45.374Z,26.40
2018-09-13T16:36:55.085Z,26.10
2018-09-13T16:39:03.762Z,26.40
2018-09-13T16:41:12.735Z,26.00
2018-09-13T16:43:17.090Z,25.60
2018-09-13T16:45:21.605Z,26.00
2018-09-13T16:47:32.365Z,25.60
2018-09-13T16:49:38.079Z,25.80
2018-09-13T16:51:41.643Z,25.60
2018-09-13T16:53:45.178Z,25.60
2018-09-13T16:55:48.754Z,26.00
2018-09-13T16:57:52.542Z,25.90
2018-09-13T16:59:56.098Z,25.80
2018-09-13T17:01:59.994Z,26.00
2018-09-13T17:04:10.278Z,25.80
2018-09-13T17:06:13.808Z,26.20
2018-09-13T17:08:17.531Z,26.20
2018-09-13T17:10:21.043Z,26.30
2018-09-13T17:12:24.660Z,26.20
2018-09-13T17:14:28.198Z,25.90
2018-09-13T17:16:31.721Z,25.90
2018-09-13T17:18:35.456Z,26.00
2018-09-13T17:20:39.002Z,25.50
2018-09-13T17:22:42.733Z,25.30
2018-09-13T17:24:46.279Z,25.40
2018-09-13T17:26:49.783Z,25.60
2018-09-13T17:28:53.442Z,24.80
2018-09-13T17:30:57.093Z,25.00
2018-09-13T17:33:00.680Z,24.50
2018-09-13T17:35:04.280Z,23.40
2018-09-13T17:37:07.930Z,23.50
2018-09-13T17:39:13.039Z,23.50
2018-09-13T17:41:16.766Z,23.00
2018-09-13T17:43:20.346Z,23.20
2018-09-13T17:45:23.931Z,23.30
2018-09-13T17:47:27.642Z,23.30
2018-09-13T17:49:31.274Z,22.80
2018-09-13T17:51:35.011Z,22.80
2018-09-13T17:53:38.973Z,23.20
2018-09-13T17:55:42.690Z,22.50
2018-09-13T17:57:46.507Z,23.10
2018-09-13T17:59:50.177Z,23.40
2018-09-13T18:01:53.752Z,23.00
2018-09-13T18:03:57.425Z,22.70
2018-09-13T18:06:01.070Z,22.20
2018-09-13T18:08:04.720Z,22.30
2018-09-13T18:10:08.606Z,21.70
2018-09-13T18:12:12.239Z,21.90
2018-09-13T18:14:15.934Z,21.90
2018-09-13T18:16:19.651Z,22.40
2018-09-13T18:18:23.353Z,22.70
2018-09-13T18:20:26.982Z,23.00
2018-09-13T18:22:30.510Z,22.60
2018-09-13T18:24:34.120Z,22.80
2018-09-13T18:26:37.788Z,23.20
2018-09-13T18:28:41.372Z,22.50
2018-09-13T18:30:44.992Z,22.00
2018-09-13T18:32:48.539Z,21.80
2018-09-13T18:34:52.264Z,22.30
2018-09-13T18:36:55.907Z,21.90
2018-09-13T18:38:59.657Z,21.60
2018-09-13T18:41:03.279Z,21.90
2018-09-13T18:43:07.003Z,21.60
2018-09-13T18:45:10.617Z,21.60
2018-09-13T18:47:14.636Z,21.00
2018-09-13T18:49:18.385Z,20.80
2018-09-13T18:51:22.182Z,21.40
2018-09-13T18:53:25.855Z,21.40
2018-09-13T18:55:29.519Z,21.80
2018-09-13T18:57:33.050Z,21.80
2018-09-13T18:59:37.202Z,21.70
2018-09-13T19:01:40.737Z,21.90
2018-09-13T19:03:44.448Z,21.80
2018-09-13T19:05:48.116Z,21.20
2018-09-13T19:07:51.701Z,22.00
2018-09-13T19:09:55.438Z,22.00
2018-09-13T19:11:59.039Z,21.60
2018-09-13T19:14:02.801Z,21.20
2018-09-13T19:16:06.715Z,21.40
2018-09-13T19:18:10.485Z,21.20
2018-09-13T19:20:14.044Z,21.70
2018-09-13T19:22:17.697Z,21.60
2018-09-13T19:24:21.446Z,21.80
2018-09-13T19:26:25.085Z,21.00
2018-09-13T19:28:28.676Z,21.70
2018-09-13T19:30:32.224Z,21.80
2018-09-13T19:32:35.964Z,22.10
2018-09-13T19:34:39.617Z,21.90
2018-09-13T19:36:43.315Z,22.10
2018-09-13T19:38:47.040Z,21.90
2018-09-13T19:40:50.491Z,21.70
2018-09-13T19:42:54.122Z,21.40
2018-09-13T19:44:57.776Z,21.40
2018-09-13T19:47:01.375Z,20.70
2018-09-13T19:49:05.070Z,20.90
2018-09-13T19:51:08.664Z,20.20
2018-09-13T19:53:12.380Z,20.70
2018-09-13T19:55:15.995Z,20.80
2018-09-13T19:57:19.851Z,20.80
2018-09-13T19:59:23.516Z,20.10
2018-09-13T20:01:27.316Z,20.20
2018-09-13T20:03:30.908Z,20.40
2018-09-13T20:05:34.575Z,20.40
2018-09-13T20:07:38.203Z,20.40
2018-09-13T20:09:41.887Z,20.40
2018-09-13T20:11:45.542Z,19.90
2018-09-13T20:13:49.194Z,20.20
2018-09-13T20:15:52.972Z,20.40
2018-09-13T20:17:56.496Z,20.90
2018-09-13T20:20:00.011Z,21.10
2018-09-13T20:22:03.755Z,20.90
2018-09-13T20:24:07.320Z,20.60
2018-09-13T20:26:11.122Z,20.60
2018-09-13T20:28:14.716Z,20.90
2018-09-13T20:30:18.324Z,20.70
2018-09-13T20:32:21.958Z,21.10
2018-09-13T20:34:25.700Z,21.10
2018-09-13T20:36:29.305Z,20.60
2018-09-13T20:38:32.911Z,20.60
2018-09-13T20:40:36.458Z,21.00
2018-09-13T20:42:40.179Z,21.20
2018-09-13T20:44:43.789Z,21.60
2018-09-13T20:46:47.529Z,21.50
2018-09-13T20:48:51.298Z,21.40
2018-09-13T20:50:54.880Z,21.70
2018-09-13T20:52:58.479Z,22.30
2018-09-13T20:55:02.118Z,22.60
2018-09-13T20:57:05.799Z,22.70
2018-09-13T20:59:09.398Z,22.70
2018-09-13T21:01:12.973Z,22.80
2018-09-13T21:03:16.655Z,23.00
2018-09-13T21:05:20.448Z,22.90
2018-09-13T21:07:24.048Z,22.90
2018-09-13T21:09:27.756Z,22.90
2018-09-13T21:11:31.312Z,22.30
2018-09-13T21:13:35.007Z,22.40
2018-09-13T21:15:38.633Z,22.00
2018-09-13T21:17:42.253Z,22.10
2018-09-13T21:19:45.832Z,21.60
2018-09-13T21:21:49.656Z,21.50
2018-09-13T21:23:53.294Z,21.60
2018-09-13T21:25:57.847Z,21.70
2018-09-13T21:28:01.413Z,21.80
2018-09-13T21:30:05.775Z,22.10
2018-09-13T21:32:09.645Z,22.60
2018-09-13T21:34:13.215Z,22.70
2018-09-13T21:36:16.995Z,22.80
2018-09-13T21:38:20.547Z,23.00
2018-09-13T21:40:24.261Z,23.20
2018-09-13T21:42:28.064Z,23.40
2018-09-13T21:44:31.706Z,23.40
2018-09-13T21:46:35.182Z,23.20
2018-09-13T21:48:38.744Z,23.10
2018-09-13T21:50:42.416Z,23.10
2018-09-13T21:52:46.072Z,23.20
2018-09-13T21:54:49.643Z,23.40
2018-09-13T21:56:53.253Z,23.40
2018-09-13T21:58:56.932Z,23.40
2018-09-13T22:01:00.462Z,23.30
2018-09-13T22:03:04.021Z,23.20
2018-09-13T22:05:07.977Z,23.30
2018-09-13T22:07:11.614Z,23.40
2018-09-13T22:09:16.596Z,23.40
2018-09-13T22:11:20.375Z,23.40
2018-09-13T22:13:24.062Z,23.50
2018-09-13T22:15:27.776Z,23.50
2018-09-13T22:17:31.742Z,23.40
2018-09-13T22:19:35.565Z,23.20
2018-09-13T22:21:39.158Z,23.20
2018-09-13T22:23:42.809Z,23.10
2018-09-13T22:25:46.380Z,23.10
2018-09-13T22:27:49.945Z,23.20
2018-09-13T22:29:53.559Z,23.30
2018-09-13T22:31:57.193Z,23.40
2018-09-13T22:34:00.948Z,23.50
2018-09-13T22:36:04.540Z,23.40
2018-09-13T22:38:08.302Z,23.50
2018-09-13T22:40:12.024Z,23.50
2018-09-13T22:42:15.581Z,23.50
2018-09-13T22:44:19.216Z,23.50
2018-09-13T22:46:23.745Z,23.50
2018-09-13T22:48:27.303Z,23.60
2018-09-13T22:50:30.959Z,23.60
2018-09-13T22:52:34.626Z,23.70
2018-09-13T22:54:38.565Z,23.70
2018-09-13T22:56:42.151Z,23.70
2018-09-13T22:58:45.991Z,23.70
2018-09-13T23:00:53.466Z,23.70
2018-09-13T23:02:56.980Z,23.70
2018-09-13T23:05:00.624Z,23.60
2018-09-13T23:07:04.181Z,23.60
2018-09-13T23:09:09.560Z,23.50
2018-09-13T23:11:13.276Z,23.50
2018-09-13T23:13:16.966Z,23.50
2018-09-13T23:15:20.757Z,23.50
2018-09-13T23:17:24.455Z,23.50
2018-09-13T23:19:28.020Z,23.50
2018-09-13T23:21:31.621Z,23.30
2018-09-13T23:23:35.189Z,23.10
2018-09-13T23:25:38.766Z,22.90
2018-09-13T23:27:42.487Z,22.70
2018-09-13T23:29:46.220Z,22.10
2018-09-13T23:31:49.720Z,22.30
2018-09-13T23:33:53.336Z,22.60
2018-09-13T23:35:56.959Z,22.90
2018-09-13T23:38:00.523Z,23.10
2018-09-13T23:40:04.478Z,23.00
2018-09-13T23:42:08.038Z,23.00
2018-09-13T23:44:11.623Z,22.70
2018-09-13T23:46:15.322Z,22.60
2018-09-13T23:48:18.918Z,22.80
2018-09-13T23:50:22.509Z,23.00
2018-09-13T23:52:26.127Z,23.10
2018-09-13T23:54:29.731Z,23.20
2018-09-13T23:56:33.426Z,23.10
2018-09-13T23:58:37.267Z,23.10
